Terminal Aerodrome Forecast
Issued by NWS

Home | Current Version | Previous Version | Text Only | Print | Product List | Glossary On
Versions: 1 2 3 4 5 6 7 8 9 10 11 12 13 14 15 16 17 18 19 20 21 22 23 24 25 26 27 28 29 30 31 32 33 34 35 36 37 38 39 40 41 42 43 44 45 46
000
FTUS45 KBOU 011121
TAFBJC
TAF
KBJC 011121Z 0112/0212 07003KT P6SM VCSH SCT004 OVC018
      TEMPO 0112/0114 3SM -SN BR BKN004
     FM011500 07005KT P6SM SCT008 BKN025
     FM011700 10005KT P6SM SCT025 BKN040
     FM011900 10007KT P6SM SCT040 BKN080
     FM020200 VRB03KT P6SM FEW060 SCT120 BKN200
     FM021000 25008KT P6SM SCT120 BKN200=

USA.gov is the U.S. government's official web portal to all federal, state and local government web resources and services.